x

Destruction Island, Wa (desw1) Weather Station

12:00am - Thu 17th Jan 2019 All times are PST. -8 hours from GMT.

  • Wind
    24mph, 26mph gusts
  • Air Temp 51°f
  • Sea Pressure 995.8mb
  • Destruction Island, Wa
  • Destruction Island, Wa

More Historic Weather Station data

Upgrade to MSW Pro to gain access to the past 30 days of data for over 8000 Wavebouys and Weather Stations around the globe.

Join

Comparision Forecast

View Surf forecast
   
Thu 01/17 12:00am 24 26 mph 995.8mb 51f
Wed 01/16 11:00pm 28 33 mph 996mb 51f
10:00pm 30 36 mph 996.8mb 51f
9:00pm 32 36 mph 997.1mb 53f
8:00pm 18 22 mph 997.2mb 53f
7:00pm 16 18 mph 997.4mb 55f
6:00pm 17 18 mph 998.7mb 54f
5:00pm 15 17 mph 1000.3mb 54f
4:00pm 23 26 mph 1001.8mb 54f
3:00pm 21 23 mph 1002.5mb 53f
2:00pm 24 26 mph 1003mb 53f
1:00pm 26 31 mph 1004.1mb 53f
12:00pm 30 34 mph 1004.8mb 53f
11:00am 23 25 mph 1005.5mb 51f
10:00am 20 21 mph 1005.9mb 50f
9:00am 16 18 mph 1005.8mb 49f
8:00am 6 7 mph 1005.5mb 47f
7:00am 7 8 mph 1005.2mb 47f
6:00am 6 7 mph 1004.8mb 44f
5:00am 5 6 mph 1005.1mb 44f
4:00am 3 3 mph 1005.6mb 43f
3:00am 10 11 mph 1005.2mb 43f
2:00am 9 10 mph 1005.4mb 43f
1:00am 7 7 mph 1005.7mb 42f
12:00am 2 3 mph 1006.2mb 43f
Tue 01/15 11:00pm 5 6 mph 1006.3mb 44f
10:00pm 8 10 mph 1006.3mb 44f
9:00pm 6 7 mph 1006.6mb 45f
8:00pm 8 9 mph 1006.6mb 46f
7:00pm 6 6 mph 1006.8mb 48f
6:00pm 5 6 mph 1006.9mb 49f
5:00pm 5 6 mph 1007.2mb 51f
4:00pm 8 8 mph 1007.5mb 49f
3:00pm 3 3 mph 1007.9mb 50f
2:00pm 1 2 mph 1008.2mb 49f
1:00pm 2 2 mph 1008.7mb 48f
12:00pm 2 3 mph 1009.3mb 52f
11:00am 6 8 mph 1010.2mb 49f
10:00am 6 7 mph 1010.5mb 48f
9:00am 10 11 mph 1010.2mb 43f
8:00am 11 13 mph 1009.8mb 44f
7:00am 7 8 mph 1010mb 46f
6:00am 18 18 mph 1009.8mb 48f
5:00am 16 18 mph 1010mb 49f
4:00am 21 22 mph 1010.3mb 48f
3:00am 26 29 mph 1010.5mb 48f
2:00am 23 25 mph 1010.5mb 47f
1:00am 5 7 mph 1011mb 45f
12:00am  -  1 mph 1011.2mb 45f
Mon 01/14 11:00pm 5 6 mph 1011.5mb 44f
10:00pm 9 10 mph 1011.3mb 44f
9:00pm 8 8 mph 1011.6mb 44f
8:00pm 9 10 mph 1011.7mb 45f
7:00pm 6 7 mph 1012mb 47f
6:00pm 6 6 mph 1012.4mb 47f
5:00pm 6 7 mph 1012.9mb 46f
4:00pm 2 3 mph 1013.4mb 46f
3:00pm 3 6 mph 1013.9mb 47f
2:00pm 2 3 mph 1014mb 46f
1:00pm 1 2 mph 1014.8mb 46f
12:00pm 5 6 mph 1015.5mb 46f
11:00am 2 3 mph 1015.9mb 45f
10:00am 6 7 mph 1016mb 43f
9:00am 6 7 mph 1016.2mb 42f
8:00am 2 2 mph 1016.2mb 42f
7:00am 5 6 mph 1016.5mb 41f
6:00am 5 6 mph 1017mb 42f
5:00am 6 7 mph 1017.6mb 44f
4:00am 6 7 mph 1017.9mb 43f
3:00am 2 3 mph 1017.8mb 44f
2:00am 6 6 mph 1018.2mb 44f
1:00am 6 6 mph 1018.4mb 44f
12:00am 7 8 mph 1018.9mb 44f
Sun 01/13 11:00pm 7 7 mph 1019.4mb 45f
10:00pm 7 7 mph 1019.5mb 46f
9:00pm 7 8 mph 1019.3mb 47f
8:00pm 3 3 mph 1019.3mb 47f
7:00pm 5 6 mph 1019.2mb 49f
6:00pm 8 8 mph 1019.1mb 48f
5:00pm 5 5 mph 1018.9mb 50f
4:00pm 3 3 mph 1019mb 49f
3:00pm  -  1 mph 1018.9mb 49f
2:00pm  -  1 mph 1018.9mb 49f
1:00pm 3 3 mph 1019.2mb 48f
12:00pm 2 3 mph 1019.5mb 48f
11:00am 2 2 mph 1020.3mb 47f
10:00am 5 5 mph 1020.2mb 47f